sensor_id;sensor_type;location;lat;lon;timestamp;pressure;altitude;pressure_sealevel;temperature;humidity
23953;BME280;12163;49.316;6.092;2023-02-02T00:01:32;100292.28;;;7.70;77.17
23953;BME280;12163;49.316;6.092;2023-02-02T00:03:59;100302.53;;;7.73;77.32
23953;BME280;12163;49.316;6.092;2023-02-02T00:06:28;100300.91;;;7.72;77.05
23953;BME280;12163;49.316;6.092;2023-02-02T00:08:56;100288.53;;;7.71;76.86
23953;BME280;12163;49.316;6.092;2023-02-02T00:11:24;100295.53;;;7.72;77.43
23953;BME280;12163;49.316;6.092;2023-02-02T00:13:50;100304.16;;;7.74;77.49
23953;BME280;12163;49.316;6.092;2023-02-02T00:16:36;100305.78;;;7.75;77.24
23953;BME280;12163;49.316;6.092;2023-02-02T00:19:09;100307.41;;;7.76;77.30
23953;BME280;12163;49.316;6.092;2023-02-02T00:21:36;100311.66;;;7.72;77.51
23953;BME280;12163;49.316;6.092;2023-02-02T00:24:05;100304.09;;;7.69;77.56
23953;BME280;12163;49.316;6.092;2023-02-02T00:26:32;100310.34;;;7.74;77.66
23953;BME280;12163;49.316;6.092;2023-02-02T00:28:59;100316.53;;;7.75;77.73
23953;BME280;12163;49.316;6.092;2023-02-02T00:31:25;100315.22;;;7.77;77.54
23953;BME280;12163;49.316;6.092;2023-02-02T00:33:52;100309.03;;;7.77;77.49
23953;BME280;12163;49.316;6.092;2023-02-02T00:36:19;100318.75;;;7.78;77.65
23953;BME280;12163;49.316;6.092;2023-02-02T00:38:47;100313.38;;;7.78;77.68
23953;BME280;12163;49.316;6.092;2023-02-02T00:41:14;100310.69;;;7.78;77.66
23953;BME280;12163;49.316;6.092;2023-02-02T00:43:41;100321.91;;;7.75;78.00
23953;BME280;12163;49.316;6.092;2023-02-02T00:46:16;100315.72;;;7.74;78.59
23953;BME280;12163;49.316;6.092;2023-02-02T00:48:42;100312.47;;;7.72;78.26
23953;BME280;12163;49.316;6.092;2023-02-02T00:51:09;100322.38;;;7.72;78.57
23953;BME280;12163;49.316;6.092;2023-02-02T00:53:36;100320.28;;;7.74;78.83
23953;BME280;12163;49.316;6.092;2023-02-02T00:56:03;100319.97;;;7.70;78.97
23953;BME280;12163;49.316;6.092;2023-02-02T00:58:29;100309.22;;;7.70;79.09
23953;BME280;12163;49.316;6.092;2023-02-02T01:00:56;100306.78;;;7.69;79.31
23953;BME280;12163;49.316;6.092;2023-02-02T01:03:23;100314.59;;;7.70;78.98
23953;BME280;12163;49.316;6.092;2023-02-02T01:05:49;100307.91;;;7.73;79.34
23953;BME280;12163;49.316;6.092;2023-02-02T01:08:17;100305.47;;;7.71;79.00
23953;BME280;12163;49.316;6.092;2023-02-02T01:10:44;100310.53;;;7.68;79.02
23953;BME280;12163;49.316;6.092;2023-02-02T01:13:10;100313.22;;;7.68;79.54
23953;BME280;12163;49.316;6.092;2023-02-02T01:15:37;100309.72;;;7.67;79.47
23953;BME280;12163;49.316;6.092;2023-02-02T01:18:03;100309.13;;;7.65;79.88
23953;BME280;12163;49.316;6.092;2023-02-02T01:20:30;100322.34;;;7.67;79.96
23953;BME280;12163;49.316;6.092;2023-02-02T01:22:57;100320.94;;;7.64;79.73
23953;BME280;12163;49.316;6.092;2023-02-02T01:25:24;100320.94;;;7.64;80.23
23953;BME280;12163;49.316;6.092;2023-02-02T01:27:51;100316.97;;;7.67;79.96
23953;BME280;12163;49.316;6.092;2023-02-02T01:30:17;100321.28;;;7.68;80.08
23953;BME280;12163;49.316;6.092;2023-02-02T01:32:44;100315.41;;;7.71;80.24
23953;BME280;12163;49.316;6.092;2023-02-02T01:35:11;100313.84;;;7.75;79.98
23953;BME280;12163;49.316;6.092;2023-02-02T01:37:38;100334.25;;;7.76;79.79
23953;BME280;12163;49.316;6.092;2023-02-02T01:40:05;100331.84;;;7.74;79.93
23953;BME280;12163;49.316;6.092;2023-02-02T01:42:32;100315.41;;;7.71;79.83
23953;BME280;12163;49.316;6.092;2023-02-02T01:47:42;100328.03;;;7.70;80.18
23953;BME280;12163;49.316;6.092;2023-02-02T01:50:13;100318.91;;;7.71;80.81
23953;BME280;12163;49.316;6.092;2023-02-02T01:52:42;100318.66;;;7.73;80.48
23953;BME280;12163;49.316;6.092;2023-02-02T01:55:13;100321.34;;;7.73;80.38
23953;BME280;12163;49.316;6.092;2023-02-02T01:57:45;100321.03;;;7.69;80.76
23953;BME280;12163;49.316;6.092;2023-02-02T02:00:14;100317.78;;;7.67;80.71
23953;BME280;12163;49.316;6.092;2023-02-02T02:02:47;100319.66;;;7.67;80.83
23953;BME280;12163;49.316;6.092;2023-02-02T02:05:19;100321.28;;;7.68;80.70
23953;BME280;12163;49.316;6.092;2023-02-02T02:07:48;100326.13;;;7.71;80.65
23953;BME280;12163;49.316;6.092;2023-02-02T02:10:17;100324.50;;;7.70;81.07
23953;BME280;12163;49.316;6.092;2023-02-02T02:12:46;100318.91;;;7.71;80.82
23953;BME280;12163;49.316;6.092;2023-02-02T02:15:13;100333.97;;;7.72;80.89
23953;BME280;12163;49.316;6.092;2023-02-02T02:30:32;100329.75;;;7.60;81.42
23953;BME280;12163;49.316;6.092;2023-02-02T02:32:56;100332.19;;;7.61;81.39
23953;BME280;12163;49.316;6.092;2023-02-02T02:38:10;100325.44;;;7.59;81.39
23953;BME280;12163;49.316;6.092;2023-02-02T02:40:46;100333.00;;;7.62;81.69
23953;BME280;12163;49.316;6.092;2023-02-02T02:43:39;100333.50;;;7.59;81.83
23953;BME280;12163;49.316;6.092;2023-02-02T02:46:07;100336.09;;;7.54;82.18
23953;BME280;12163;49.316;6.092;2023-02-02T02:48:35;100337.00;;;7.59;81.74
23953;BME280;12163;49.316;6.092;2023-02-02T02:51:06;100331.63;;;7.59;82.05
23953;BME280;12163;49.316;6.092;2023-02-02T02:53:33;100335.13;;;7.60;81.98
23953;BME280;12163;49.316;6.092;2023-02-02T02:56:13;100337.81;;;7.60;82.38
23953;BME280;12163;49.316;6.092;2023-02-02T02:58:59;100336.44;;;7.57;82.23
23953;BME280;12163;49.316;6.092;2023-02-02T03:01:36;100337.75;;;7.55;82.63
23953;BME280;12163;49.316;6.092;2023-02-02T03:04:22;100339.38;;;7.56;82.59
23953;BME280;12163;49.316;6.092;2023-02-02T03:07:06;100340.44;;;7.55;82.58
23953;BME280;12163;49.316;6.092;2023-02-02T03:09:39;100332.69;;;7.58;82.59
23953;BME280;12163;49.316;6.092;2023-02-02T03:12:07;100328.13;;;7.59;82.69
23953;BME280;12163;49.316;6.092;2023-02-02T03:14:35;100326.50;;;7.58;82.93
23953;BME280;12163;49.316;6.092;2023-02-02T03:17:02;100317.88;;;7.56;82.59
23953;BME280;12163;49.316;6.092;2023-02-02T03:19:29;100310.41;;;7.58;82.46
23953;BME280;12163;49.316;6.092;2023-02-02T03:21:55;100306.66;;;7.59;82.83
23953;BME280;12163;49.316;6.092;2023-02-02T03:24:22;100304.19;;;7.57;82.84
23953;BME280;12163;49.316;6.092;2023-02-02T03:26:49;100302.91;;;7.60;82.66
23953;BME280;12163;49.316;6.092;2023-02-02T03:29:15;100295.91;;;7.59;82.92
23953;BME280;12163;49.316;6.092;2023-02-02T03:31:42;100295.34;;;7.57;82.94
23953;BME280;12163;49.316;6.092;2023-02-02T03:34:09;100296.97;;;7.58;82.83
23953;BME280;12163;49.316;6.092;2023-02-02T03:36:35;100309.91;;;7.61;82.65
23953;BME280;12163;49.316;6.092;2023-02-02T03:39:02;100316.91;;;7.62;82.91
23953;BME280;12163;49.316;6.092;2023-02-02T03:41:29;100316.91;;;7.62;82.65
23953;BME280;12163;49.316;6.092;2023-02-02T03:43:55;100317.69;;;7.62;82.14
23953;BME280;12163;49.316;6.092;2023-02-02T03:46:22;100327.63;;;7.62;82.62
23953;BME280;12163;49.316;6.092;2023-02-02T03:48:49;100324.13;;;7.61;82.66
23953;BME280;12163;49.316;6.092;2023-02-02T03:51:15;100324.38;;;7.60;82.33
23953;BME280;12163;49.316;6.092;2023-02-02T03:53:42;100326.00;;;7.61;82.63
23953;BME280;12163;49.316;6.092;2023-02-02T03:56:15;100331.38;;;7.61;82.48
23953;BME280;12163;49.316;6.092;2023-02-02T03:58:41;100332.19;;;7.61;82.36
23953;BME280;12163;49.316;6.092;2023-02-02T04:01:12;100324.69;;;7.63;82.70
23953;BME280;12163;49.316;6.092;2023-02-02T04:03:40;100328.94;;;7.59;82.75
23953;BME280;12163;49.316;6.092;2023-02-02T04:06:07;100339.94;;;7.58;82.39
23953;BME280;12163;49.316;6.092;2023-02-02T04:08:33;100325.94;;;7.56;82.50
23953;BME280;12163;49.316;6.092;2023-02-02T04:11:00;100329.09;;;7.53;82.48
23953;BME280;12163;49.316;6.092;2023-02-02T04:13:27;100325.84;;;7.51;82.72
23953;BME280;12163;49.316;6.092;2023-02-02T04:15:58;100322.59;;;7.49;82.81
23953;BME280;12163;49.316;6.092;2023-02-02T04:18:25;100326.03;;;7.44;82.72
23953;BME280;12163;49.316;6.092;2023-02-02T04:21:01;100332.69;;;7.42;82.54
23953;BME280;12163;49.316;6.092;2023-02-02T04:23:30;100335.97;;;7.44;82.78
23953;BME280;12163;49.316;6.092;2023-02-02T04:25:58;100335.97;;;7.44;83.05
23953;BME280;12163;49.316;6.092;2023-02-02T04:28:25;100338.66;;;7.44;82.59
23953;BME280;12163;49.316;6.092;2023-02-02T04:30:53;100335.22;;;7.48;82.89
23953;BME280;12163;49.316;6.092;2023-02-02T04:33:22;100339.53;;;7.49;83.27
23953;BME280;12163;49.316;6.092;2023-02-02T04:35:50;100339.84;;;7.53;82.77
23953;BME280;12163;49.316;6.092;2023-02-02T04:38:17;100346.03;;;7.53;82.62
23953;BME280;12163;49.316;6.092;2023-02-02T04:40:46;100339.84;;;7.53;82.37
23953;BME280;12163;49.316;6.092;2023-02-02T04:43:13;100330.41;;;7.50;82.61
23953;BME280;12163;49.316;6.092;2023-02-02T04:45:39;100339.28;;;7.51;82.13
23953;BME280;12163;49.316;6.092;2023-02-02T04:48:08;100339.28;;;7.51;82.86
23953;BME280;12163;49.316;6.092;2023-02-02T04:50:34;100346.53;;;7.50;82.31
23953;BME280;12163;49.316;6.092;2023-02-02T04:53:02;100343.59;;;7.52;82.69
23953;BME280;12163;49.316;6.092;2023-02-02T04:55:29;100357.56;;;7.54;82.81
23953;BME280;12163;49.316;6.092;2023-02-02T04:57:55;100355.22;;;7.57;82.31
23953;BME280;12163;49.316;6.092;2023-02-02T05:00:22;100358.75;;;7.58;82.36
23953;BME280;12163;49.316;6.092;2023-02-02T05:02:49;100351.97;;;7.55;82.48
23953;BME280;12163;49.316;6.092;2023-02-02T05:05:15;100357.13;;;7.57;82.16
23953;BME280;12163;49.316;6.092;2023-02-02T05:07:42;100359.31;;;7.60;82.39
23953;BME280;12163;49.316;6.092;2023-02-02T05:10:09;100350.75;;;7.63;82.26
23953;BME280;12163;49.316;6.092;2023-02-02T05:12:36;100355.84;;;7.64;81.91
23953;BME280;12163;49.316;6.092;2023-02-02T05:15:03;100340.00;;;7.63;82.00
23953;BME280;12163;49.316;6.092;2023-02-02T05:17:31;100343.25;;;7.65;81.87
23953;BME280;12163;49.316;6.092;2023-02-02T05:19:58;100343.25;;;7.65;82.15
23953;BME280;12163;49.316;6.092;2023-02-02T05:22:24;100341.13;;;7.67;81.93
23953;BME280;12163;49.316;6.092;2023-02-02T05:24:52;100335.75;;;7.67;81.77
23953;BME280;12163;49.316;6.092;2023-02-02T05:27:18;100341.38;;;7.65;81.83
23953;BME280;12163;49.316;6.092;2023-02-02T05:29:46;100349.91;;;7.62;81.95
23953;BME280;12163;49.316;6.092;2023-02-02T05:32:12;100359.03;;;7.61;82.22
23953;BME280;12163;49.316;6.092;2023-02-02T05:34:39;100361.72;;;7.61;82.30
23953;BME280;12163;49.316;6.092;2023-02-02T05:37:06;100355.63;;;7.66;81.66
23953;BME280;12163;49.316;6.092;2023-02-02T05:39:32;100367.19;;;7.66;81.76
23953;BME280;12163;49.316;6.092;2023-02-02T05:41:59;100358.06;;;7.67;81.80
23953;BME280;12163;49.316;6.092;2023-02-02T05:44:25;100360.16;;;7.65;81.63
23953;BME280;12163;49.316;6.092;2023-02-02T05:46:52;100358.81;;;7.63;82.09
23953;BME280;12163;49.316;6.092;2023-02-02T05:49:18;100370.03;;;7.60;82.03
23953;BME280;12163;49.316;6.092;2023-02-02T05:51:47;100377.59;;;7.63;81.92
23953;BME280;12163;49.316;6.092;2023-02-02T05:54:15;100377.59;;;7.63;81.59
23953;BME280;12163;49.316;6.092;2023-02-02T05:56:47;100386.72;;;7.62;82.09
23953;BME280;12163;49.316;6.092;2023-02-02T05:59:13;100386.41;;;7.58;82.25
23953;BME280;12163;49.316;6.092;2023-02-02T06:01:40;100395.00;;;7.77;82.37
23953;BME280;12163;49.316;6.092;2023-02-02T06:04:07;100410.56;;;8.13;80.56
23953;BME280;12163;49.316;6.092;2023-02-02T06:06:33;100410.88;;;8.32;80.49
23953;BME280;12163;49.316;6.092;2023-02-02T06:09:01;100409.13;;;8.43;78.63
23953;BME280;12163;49.316;6.092;2023-02-02T06:11:28;100409.50;;;8.51;78.22
23953;BME280;12163;49.316;6.092;2023-02-02T06:13:55;100411.63;;;8.49;78.41
23953;BME280;12163;49.316;6.092;2023-02-02T06:16:22;100412.16;;;8.46;78.08
23953;BME280;12163;49.316;6.092;2023-02-02T06:18:48;100414.63;;;8.32;78.55
23953;BME280;12163;49.316;6.092;2023-02-02T06:21:15;100422.81;;;8.20;78.52
23953;BME280;12163;49.316;6.092;2023-02-02T06:23:42;100426.63;;;8.24;79.02
23953;BME280;12163;49.316;6.092;2023-02-02T06:26:12;100435.81;;;8.28;78.56
23953;BME280;12163;49.316;6.092;2023-02-02T06:28:38;100433.41;;;8.27;79.00
23953;BME280;12163;49.316;6.092;2023-02-02T06:31:09;100433.22;;;8.17;79.09
23953;BME280;12163;49.316;6.092;2023-02-02T06:33:36;100425.00;;;8.07;79.41
23953;BME280;12163;49.316;6.092;2023-02-02T06:36:06;100430.78;;;7.99;79.75
23953;BME280;12163;49.316;6.092;2023-02-02T06:38:32;100430.50;;;7.95;79.98
23953;BME280;12163;49.316;6.092;2023-02-02T06:41:00;100419.41;;;7.92;80.48
23953;BME280;12163;49.316;6.092;2023-02-02T06:43:27;100417.94;;;7.84;80.33
23953;BME280;12163;49.316;6.092;2023-02-02T06:45:57;100422.53;;;7.84;80.82
23953;BME280;12163;49.316;6.092;2023-02-02T06:48:25;100415.53;;;7.83;80.63
23953;BME280;12163;49.316;6.092;2023-02-02T06:50:51;100424.66;;;7.82;80.72
23953;BME280;12163;49.316;6.092;2023-02-02T06:53:19;100425.16;;;7.79;80.89
23953;BME280;12163;49.316;6.092;2023-02-02T06:55:53;100434.28;;;7.78;81.04
23953;BME280;12163;49.316;6.092;2023-02-02T06:58:19;100428.91;;;7.78;80.98
23953;BME280;12163;49.316;6.092;2023-02-02T07:00:46;100420.22;;;7.76;81.52
23953;BME280;12163;49.316;6.092;2023-02-02T07:03:14;100400.63;;;7.75;81.29
23953;BME280;12163;49.316;6.092;2023-02-02T07:05:41;100405.75;;;7.77;81.23
23953;BME280;12163;49.316;6.092;2023-02-02T07:08:08;100395.50;;;7.74;81.55
23953;BME280;12163;49.316;6.092;2023-02-02T07:10:38;100392.81;;;7.74;81.40
23953;BME280;12163;49.316;6.092;2023-02-02T07:13:25;100396.00;;;7.71;81.79
23953;BME280;12163;49.316;6.092;2023-02-02T07:15:51;100389.00;;;7.70;81.94
23953;BME280;12163;49.316;6.092;2023-02-02T07:18:20;100392.25;;;7.72;81.75
23953;BME280;12163;49.316;6.092;2023-02-02T07:20:46;100402.97;;;7.72;82.05
23953;BME280;12163;49.316;6.092;2023-02-02T07:23:13;100398.59;;;7.66;82.16
23953;BME280;12163;49.316;6.092;2023-02-02T07:25:39;100406.66;;;7.66;82.40
23953;BME280;12163;49.316;6.092;2023-02-02T07:28:09;100402.34;;;7.65;82.65
23953;BME280;12163;49.316;6.092;2023-02-02T07:30:35;100408.78;;;7.64;82.40
23953;BME280;12163;49.316;6.092;2023-02-02T07:33:02;100402.84;;;7.62;82.66
23953;BME280;12163;49.316;6.092;2023-02-02T07:35:28;100410.34;;;7.60;82.94
23953;BME280;12163;49.316;6.092;2023-02-02T07:37:55;100416.28;;;7.62;83.37
23953;BME280;12163;49.316;6.092;2023-02-02T07:40:22;100419.53;;;7.64;82.88
23953;BME280;12163;49.316;6.092;2023-02-02T07:42:49;100427.09;;;7.67;82.79
23953;BME280;12163;49.316;6.092;2023-02-02T07:45:16;100430.84;;;7.66;82.83
23953;BME280;12163;49.316;6.092;2023-02-02T07:47:59;100436.22;;;7.66;82.81
23953;BME280;12163;49.316;6.092;2023-02-02T07:50:27;100446.47;;;7.69;82.94
23953;BME280;12163;49.316;6.092;2023-02-02T07:52:54;100435.50;;;7.70;82.61
23953;BME280;12163;49.316;6.092;2023-02-02T07:55:21;100440.59;;;7.72;82.71
23953;BME280;12163;49.316;6.092;2023-02-02T07:57:47;100444.34;;;7.71;82.78
23953;BME280;12163;49.316;6.092;2023-02-02T08:00:14;100451.34;;;7.72;82.93
23953;BME280;12163;49.316;6.092;2023-02-02T08:02:41;100462.91;;;7.72;82.82
23953;BME280;12163;49.316;6.092;2023-02-02T08:05:08;100461.03;;;7.73;82.94
23953;BME280;12163;49.316;6.092;2023-02-02T08:07:35;100465.84;;;7.71;82.77
23953;BME280;12163;49.316;6.092;2023-02-02T08:10:01;100455.59;;;7.68;82.74
23953;BME280;12163;49.316;6.092;2023-02-02T08:12:28;100477.16;;;7.73;82.84
23953;BME280;12163;49.316;6.092;2023-02-02T08:14:55;100479.34;;;7.76;82.85
23953;BME280;12163;49.316;6.092;2023-02-02T08:17:21;100476.44;;;7.77;82.77
23953;BME280;12163;49.316;6.092;2023-02-02T08:19:49;100485.31;;;7.78;82.62
23953;BME280;12163;49.316;6.092;2023-02-02T08:22:15;100475.94;;;7.80;82.81
23953;BME280;12163;49.316;6.092;2023-02-02T08:24:45;100482.94;;;7.81;82.67
23953;BME280;12163;49.316;6.092;2023-02-02T08:27:12;100483.44;;;7.78;82.70
23953;BME280;12163;49.316;6.092;2023-02-02T08:29:38;100486.34;;;7.77;83.07
23953;BME280;12163;49.316;6.092;2023-02-02T08:32:05;100486.69;;;7.80;82.74
23953;BME280;12163;49.316;6.092;2023-02-02T08:34:32;100480.25;;;7.81;83.06
23953;BME280;12163;49.316;6.092;2023-02-02T08:37:02;100482.38;;;7.79;82.41
23953;BME280;12163;49.316;6.092;2023-02-02T08:39:29;100494.50;;;7.82;82.60
23953;BME280;12163;49.316;6.092;2023-02-02T08:41:56;100499.13;;;7.86;82.32
23953;BME280;12163;49.316;6.092;2023-02-02T08:44:23;100504.13;;;7.94;82.61
23953;BME280;12163;49.316;6.092;2023-02-02T08:47:08;100503.97;;;8.01;82.37
23953;BME280;12163;49.316;6.092;2023-02-02T08:49:35;100492.94;;;8.02;82.10
23953;BME280;12163;49.316;6.092;2023-02-02T08:52:01;100498.72;;;8.11;82.11
23953;BME280;12163;49.316;6.092;2023-02-02T08:54:28;100506.16;;;8.20;81.76
23953;BME280;12163;49.316;6.092;2023-02-02T08:56:55;100509.66;;;8.21;81.34
23953;BME280;12163;49.316;6.092;2023-02-02T08:59:22;100492.72;;;8.20;81.32
23953;BME280;12163;49.316;6.092;2023-02-02T09:01:48;100478.72;;;8.18;81.07
23953;BME280;12163;49.316;6.092;2023-02-02T09:04:15;100482.75;;;8.21;80.78
23953;BME280;12163;49.316;6.092;2023-02-02T09:06:42;100485.44;;;8.21;80.78
23953;BME280;12163;49.316;6.092;2023-02-02T09:09:12;100468.28;;;8.22;80.42
23953;BME280;12163;49.316;6.092;2023-02-02T09:11:39;100479.66;;;8.29;80.64
23953;BME280;12163;49.316;6.092;2023-02-02T09:14:06;100475.81;;;8.41;80.28
23953;BME280;12163;49.316;6.092;2023-02-02T09:16:33;100483.63;;;8.42;79.46
23953;BME280;12163;49.316;6.092;2023-02-02T09:19:00;100477.19;;;8.43;79.54
23953;BME280;12163;49.316;6.092;2023-02-02T09:21:27;100491.44;;;8.44;79.06
23953;BME280;12163;49.316;6.092;2023-02-02T09:23:54;100494.31;;;8.37;79.56
23953;BME280;12163;49.316;6.092;2023-02-02T09:28:54;100509.81;;;8.31;79.48
23953;BME280;12163;49.316;6.092;2023-02-02T09:31:22;100499.06;;;8.31;79.51
23953;BME280;12163;49.316;6.092;2023-02-02T09:33:49;100503.31;;;8.27;79.58
23953;BME280;12163;49.316;6.092;2023-02-02T09:36:18;100500.13;;;8.30;79.51
23953;BME280;12163;49.316;6.092;2023-02-02T09:38:49;100508.19;;;8.30;79.69
23953;BME280;12163;49.316;6.092;2023-02-02T09:55:41;100525.44;;;8.33;79.19
23953;BME280;12163;49.316;6.092;2023-02-02T10:06:37;100523.06;;;8.75;78.20
23953;BME280;12163;49.316;6.092;2023-02-02T10:09:27;100529.59;;;8.79;78.45
23953;BME280;12163;49.316;6.092;2023-02-02T10:12:00;100534.03;;;8.90;77.74
23953;BME280;12163;49.316;6.092;2023-02-02T10:14:38;100534.72;;;9.02;77.41
23953;BME280;12163;49.316;6.092;2023-02-02T10:20:11;100545.97;;;8.99;76.30
23953;BME280;12163;49.316;6.092;2023-02-02T10:22:40;100548.88;;;8.92;76.37
23953;BME280;12163;49.316;6.092;2023-02-02T10:25:12;100545.34;;;8.92;76.60
23953;BME280;12163;49.316;6.092;2023-02-02T10:27:39;100558.06;;;8.96;76.53
23953;BME280;12163;49.316;6.092;2023-02-02T10:30:18;100550.44;;;8.88;76.19
23953;BME280;12163;49.316;6.092;2023-02-02T10:33:01;100562.75;;;8.84;76.01
23953;BME280;12163;49.316;6.092;2023-02-02T10:35:51;100561.06;;;8.78;75.83
23953;BME280;12163;49.316;6.092;2023-02-02T10:38:44;100561.56;;;8.75;76.25
23953;BME280;12163;49.316;6.092;2023-02-02T10:41:29;100568.41;;;8.83;76.01
23953;BME280;12163;49.316;6.092;2023-02-02T10:44:10;100562.25;;;8.87;75.73
23953;BME280;12163;49.316;6.092;2023-02-02T10:46:47;100556.31;;;8.85;75.87
23953;BME280;12163;49.316;6.092;2023-02-02T10:49:28;100557.47;;;8.89;76.16
23953;BME280;12163;49.316;6.092;2023-02-02T10:57:51;100588.31;;;9.03;75.46
23953;BME280;12163;49.316;6.092;2023-02-02T11:03:08;100578.66;;;9.07;74.41
23953;BME280;12163;49.316;6.092;2023-02-02T11:05:35;100585.94;;;9.07;74.37
23953;BME280;12163;49.316;6.092;2023-02-02T11:08:41;100594.59;;;9.09;74.69
23953;BME280;12163;49.316;6.092;2023-02-02T11:11:15;100595.69;;;9.13;73.89
23953;BME280;12163;49.316;6.092;2023-02-02T11:13:52;100580.88;;;9.10;73.80
23953;BME280;12163;49.316;6.092;2023-02-02T11:16:23;100595.69;;;9.13;74.11
23953;BME280;12163;49.316;6.092;2023-02-02T11:18:58;100589.81;;;9.16;74.20
23953;BME280;12163;49.316;6.092;2023-02-02T11:21:30;100595.47;;;9.14;73.51
23953;BME280;12163;49.316;6.092;2023-02-02T11:31:56;100574.78;;;9.20;72.92
23953;BME280;12163;49.316;6.092;2023-02-02T11:34:28;100564.88;;;9.25;72.68
23953;BME280;12163;49.316;6.092;2023-02-02T11:39:41;100570.53;;;9.24;72.11
23953;BME280;12163;49.316;6.092;2023-02-02T11:42:14;100575.09;;;9.23;72.41
23953;BME280;12163;49.316;6.092;2023-02-02T11:44:56;100568.91;;;9.23;72.07
23953;BME280;12163;49.316;6.092;2023-02-02T11:47:28;100570.03;;;9.27;72.17
23953;BME280;12163;49.316;6.092;2023-02-02T11:49:58;100562.56;;;9.34;72.11
23953;BME280;12163;49.316;6.092;2023-02-02T11:52:28;100558.84;;;9.40;71.55
23953;BME280;12163;49.316;6.092;2023-02-02T11:55:08;100556.44;;;9.38;71.49
23953;BME280;12163;49.316;6.092;2023-02-02T11:57:39;100558.06;;;9.39;71.91
23953;BME280;12163;49.316;6.092;2023-02-02T12:02:35;100547.56;;;9.43;72.33
23953;BME280;12163;49.316;6.092;2023-02-02T12:07:40;100535.31;;;9.57;71.46
23953;BME280;12163;49.316;6.092;2023-02-02T12:10:21;100553.63;;;9.55;71.31
23953;BME280;12163;49.316;6.092;2023-02-02T12:13:04;100538.22;;;9.50;71.04
23953;BME280;12163;49.316;6.092;2023-02-02T12:21:02;100546.78;;;9.42;70.95
23953;BME280;12163;49.316;6.092;2023-02-02T12:32:08;100546.66;;;9.32;72.20
23953;BME280;12163;49.316;6.092;2023-02-02T12:56:36;100562.44;;;9.02;72.63
23953;BME280;12163;49.316;6.092;2023-02-02T13:02:04;100546.81;;;8.99;72.81
23953;BME280;12163;49.316;6.092;2023-02-02T13:07:47;100539.78;;;8.98;72.82
23953;BME280;12163;49.316;6.092;2023-02-02T13:13:01;100553.50;;;8.97;72.61
23953;BME280;12163;49.316;6.092;2023-02-02T13:15:35;100542.66;;;8.92;72.51
23953;BME280;12163;49.316;6.092;2023-02-02T13:18:07;100542.44;;;8.93;72.88
23953;BME280;12163;49.316;6.092;2023-02-02T13:20:40;100547.31;;;8.96;72.76
23953;BME280;12163;49.316;6.092;2023-02-02T13:23:14;100543.28;;;8.99;72.74
23953;BME280;12163;49.316;6.092;2023-02-02T13:25:49;100534.41;;;8.98;72.91
23953;BME280;12163;49.316;6.092;2023-02-02T13:28:34;100535.47;;;8.97;72.89
23953;BME280;12163;49.316;6.092;2023-02-02T13:31:06;100548.94;;;8.97;73.19
23953;BME280;12163;49.316;6.092;2023-02-02T13:33:36;100550.06;;;9.01;73.11
23953;BME280;12163;49.316;6.092;2023-02-02T13:36:25;100545.22;;;9.03;72.81
23953;BME280;12163;49.316;6.092;2023-02-02T13:38:57;100543.97;;;9.11;72.76
23953;BME280;12163;49.316;6.092;2023-02-02T13:41:25;100561.25;;;9.15;72.78
23953;BME280;12163;49.316;6.092;2023-02-02T13:44:16;100567.53;;;9.20;72.62
23953;BME280;12163;49.316;6.092;2023-02-02T13:47:00;100563.53;;;9.23;72.17
23953;BME280;12163;49.316;6.092;2023-02-02T13:49:37;100559.00;;;9.28;72.48
23953;BME280;12163;49.316;6.092;2023-02-02T13:57:59;100545.38;;;9.40;71.18
23953;BME280;12163;49.316;6.092;2023-02-02T14:00:34;100532.97;;;9.39;71.37
23953;BME280;12163;49.316;6.092;2023-02-02T14:03:06;100526.78;;;9.38;71.10
23953;BME280;12163;49.316;6.092;2023-02-02T14:08:30;100526.31;;;9.20;71.09
23953;BME280;12163;49.316;6.092;2023-02-02T14:11:00;100539.16;;;9.13;71.53
23953;BME280;12163;49.316;6.092;2023-02-02T14:13:34;100550.19;;;9.11;71.64
23953;BME280;12163;49.316;6.092;2023-02-02T14:19:04;100552.00;;;9.06;72.40
23953;BME280;12163;49.316;6.092;2023-02-02T14:29:34;100550.06;;;9.01;72.33
23953;BME280;12163;49.316;6.092;2023-02-02T14:45:30;100581.69;;;8.89;72.06
23953;BME280;12163;49.316;6.092;2023-02-02T14:48:16;100574.59;;;8.83;72.19
23953;BME280;12163;49.316;6.092;2023-02-02T14:50:51;100567.06;;;8.85;72.14
23953;BME280;12163;49.316;6.092;2023-02-02T14:58:33;100577.28;;;8.83;72.07
23953;BME280;12163;49.316;6.092;2023-02-02T15:15:01;100578.44;;;8.71;72.64
23953;BME280;12163;49.316;6.092;2023-02-02T15:23:04;100594.97;;;8.79;72.06
23953;BME280;12163;49.316;6.092;2023-02-02T15:31:44;100607.38;;;8.80;71.14
23953;BME280;12163;49.316;6.092;2023-02-02T15:34:19;100616.34;;;8.86;70.65
23953;BME280;12163;49.316;6.092;2023-02-02T15:36:51;100618.78;;;8.87;70.88
23953;BME280;12163;49.316;6.092;2023-02-02T15:41:57;100626.84;;;8.87;70.66
23953;BME280;12163;49.316;6.092;2023-02-02T15:44:44;100638.69;;;8.86;70.83
23953;BME280;12163;49.316;6.092;2023-02-02T15:47:27;100631.94;;;8.84;71.18
23953;BME280;12163;49.316;6.092;2023-02-02T15:49:55;100640.31;;;8.87;70.88
23953;BME280;12163;49.316;6.092;2023-02-02T15:52:28;100641.97;;;8.88;70.83
23953;BME280;12163;49.316;6.092;2023-02-02T15:54:57;100651.41;;;8.91;70.77
23953;BME280;12163;49.316;6.092;2023-02-02T15:57:34;100651.66;;;8.89;70.88
23953;BME280;12163;49.316;6.092;2023-02-02T16:03:04;100647.00;;;8.85;71.38
23953;BME280;12163;49.316;6.092;2023-02-02T16:08:05;100649.63;;;8.80;71.55
23953;BME280;12163;49.316;6.092;2023-02-02T16:10:34;100655.53;;;8.77;71.59
23953;BME280;12163;49.316;6.092;2023-02-02T16:13:00;100653.06;;;8.75;71.78
23953;BME280;12163;49.316;6.092;2023-02-02T16:15:28;100661.69;;;8.77;71.42
23953;BME280;12163;49.316;6.092;2023-02-02T16:18:09;100662.75;;;8.76;71.72
23953;BME280;12163;49.316;6.092;2023-02-02T16:20:39;100658.44;;;8.75;71.54
23953;BME280;12163;49.316;6.092;2023-02-02T16:23:13;100671.34;;;8.73;71.64